Latest Weather Observations for Normanton

IDQ60801

Issued at 7:52 am EST Friday 23 February 2024 (issued every 10 minutes, with the page automatically refreshed every 10 minutes)

About weather observations | Map of weather stations | Latest weather observations for QLD | Other Formats
Station Details ID: 029063 Name: NORMANTON AIRPORT Lat: -17.69 Lon: 141.07 Height: 18.42 m
Data from the previous 72 hours. | See also: Recent months at Normanton
Date/Time
EST
Temp
°C
App
Temp
°C
Dew
Point
°C
Rel
Hum
%
Delta-T
°C
Wind Press
QNH
hPa
Press
MSL
hPa
Rain since
9am
mm
Dir  Spd
km/h
Gust
km/h
Spd
kts
Gust
kts
23/07:35am 25.6 29.7 24.0 91 1.1 SSE 9 13 5 7 1009.8 1009.6 0.0
23/07:30am 25.6 30.2 24.2 92 1.0 SSE 7 11 4 6 1009.7 1009.5 0.0
23/07:13am 25.5 29.8 24.3 93 0.8 SSE 9 11 5 6 1009.5 1009.3 0.0
23/07:00am 25.2 29.3 24.0 93 0.8 SSE 9 11 5 6 1009.4 1009.2 0.0
23/06:38am 25.1 29.8 23.9 93 0.8 SE 6 9 3 5 1008.9 1008.7 0.0
23/06:30am 25.0 29.4 23.8 93 0.8 SE 7 9 4 5 1008.8 1008.6 0.0
23/06:00am 25.1 29.8 23.9 93 0.8 ESE 6 9 3 5 1008.3 1008.1 0.0
23/05:48am 25.1 29.6 23.9 93 0.8 SE 7 11 4 6 1008.3 1008.1 0.0
23/05:30am 25.2 29.9 24.0 93 0.8 SE 6 9 3 5 1008.1 1007.9 0.0
23/05:29am 25.2 29.9 24.0 93 0.8 SE 6 9 3 5 1008.1 1007.9 0.0
23/05:00am 25.2 29.8 23.8 92 1.0 SE 6 9 3 5 1007.9 1007.7 0.0
23/04:30am 25.4 29.8 23.8 91 1.1 SE 7 9 4 5 1007.6 1007.4 0.0
23/04:00am 25.5 30.4 23.7 90 1.2 E 4 7 2 4 1007.6 1007.4 0.0
23/03:30am 25.7 30.4 23.9 90 1.2 SE 6 11 3 6 1007.8 1007.6 0.0
23/03:00am 26.0 30.7 23.9 88 1.4 SE 6 11 3 6 1008.2 1008.0 0.0
23/02:30am 26.3 30.4 24.0 87 1.6 ESE 9 13 5 7 1008.4 1008.2 0.0
23/02:00am 26.6 30.9 24.3 87 1.6 ESE 9 15 5 8 1008.6 1008.4 0.0
23/01:30am 27.1 31.9 24.4 85 1.9 ESE 7 13 4 7 1008.9 1008.7 0.0
23/01:00am 27.4 31.2 24.1 82 2.3 ESE 11 17 6 9 1009.2 1009.0 0.0
23/12:30am 27.3 31.5 23.5 80 2.6 SE 7 13 4 7 1009.3 1009.1 0.0
23/12:00am 27.4 31.2 23.4 79 2.7 SE 9 15 5 8 1009.5 1009.3 0.0
 
Date/Time
EST
Temp
°C
App
Temp
°C
Dew
Point
°C
Rel
Hum
%
Delta-T
°C
Wind Press
QNH
hPa
Press
MSL
hPa
Rain since
9am
mm
Dir  Spd
km/h
Gust
km/h
Spd
kts
Gust
kts
22/11:30pm 27.7 30.9 23.1 76 3.1 SSE 11 17 6 9 1009.7 1009.5 0.0
22/11:00pm 27.9 31.1 23.1 75 3.3 SE 11 17 6 9 1009.6 1009.4 0.0
22/10:30pm 27.8 31.6 24.0 80 2.6 S 11 13 6 7 1009.7 1009.5 0.0
22/10:00pm 27.5 32.4 24.6 84 2.0 SSW 7 9 4 5 1009.6 1009.4 0.0
22/09:30pm 27.7 34.1 24.9 85 2.0 CALM 0 0 0 0 1009.5 1009.3 0.0
22/09:00pm 28.2 34.0 24.0 78 2.9 CALM 0 6 0 3 1009.4 1009.2 0.0
22/08:30pm 28.5 33.2 24.3 78 2.9 SSW 7 11 4 6 1008.5 1008.3 0.0
22/08:00pm 29.1 32.9 24.7 77 3.1 WSW 13 22 7 12 1008.2 1008.0 0.0
22/07:30pm 29.7 34.9 25.7 79 2.8 W 9 13 5 7 1007.9 1007.7 0.0
22/07:00pm 30.4 35.8 25.5 75 3.5 W 7 13 4 7 1007.5 1007.3 0.0
22/06:30pm 31.1 36.1 25.4 71 4.0 NNW 9 13 5 7 1007.1 1006.9 0.0
22/06:00pm 31.7 35.6 24.3 65 5.2 NW 11 13 6 7 1006.6 1006.4 0.0
22/05:30pm 31.7 36.2 25.8 71 4.2 NNW 13 15 7 8 1006.3 1006.1 0.0
22/05:00pm 31.5 36.5 25.4 70 4.3 WNW 9 17 5 9 1006.2 1006.0 0.0
22/04:30pm 32.9 37.3 24.4 61 6.0 S 9 13 5 7 1006.3 1006.1 0.0
22/04:00pm 32.3 36.8 24.6 64 5.4 SSE 9 15 5 8 1006.4 1006.2 0.0
22/03:30pm 32.9 37.0 25.2 64 5.5 SSE 13 22 7 12 1006.5 1006.3 0.0
22/03:00pm 32.6 37.3 24.9 64 5.4 SSE 9 20 5 11 1006.7 1006.5 0.0
22/02:30pm 32.5 36.4 24.3 62 5.7 S 11 20 6 11 1007.2 1007.0 0.0
22/02:00pm 32.3 38.0 26.4 71 4.2 SSE 9 20 5 11 1007.5 1007.3 0.0
22/01:30pm 31.7 36.6 25.3 69 4.5 ESE 9 15 5 8 1007.9 1007.7 0.0
22/01:00pm 31.4 36.5 25.0 69 4.5 SE 7 15 4 8 1008.5 1008.3 0.0
22/12:30pm 30.7 35.9 25.1 72 3.9 ENE 7 17 4 9 1008.9 1008.7 0.0
22/12:00pm 30.3 34.9 24.7 72 3.9 E 9 15 5 8 1009.4 1009.2 0.0
22/11:30am 29.8 33.8 24.4 73 3.8 ESE 11 17 6 9 1009.5 1009.3 0.0
22/11:00am 29.5 33.6 24.6 75 3.4 E 11 19 6 10 1010.0 1009.8 0.0
22/10:30am 29.5 33.9 25.0 77 3.2 ESE 11 17 6 9 1010.3 1010.1 0.0
22/10:10am 28.9 33.0 24.5 77 3.1 E 11 19 6 10 1010.6 1010.4 0.0
22/10:00am 28.8 32.9 24.6 78 2.9 ESE 11 17 6 9 1010.7 1010.5 0.0
22/09:30am 28.2 32.4 24.8 82 2.4 ESE 11 17 6 9 1010.9 1010.7 0.0
22/09:00am 27.4 31.6 24.7 85 1.9 ESE 11 19 6 10 1010.9 1010.7 0.0
22/08:30am 27.4 31.3 24.8 86 1.8 ESE 13 20 7 11 1010.7 1010.5 0.0
22/08:00am 27.0 31.5 24.6 87 1.7 E 9 15 5 8 1010.4 1010.2 0.0
22/07:49am 26.6 30.5 24.3 87 1.6 ESE 11 19 6 10 1010.3 1010.1 0.0
22/07:30am 26.1 30.0 24.3 90 1.2 ESE 11 17 6 9 1010.2 1010.0 0.0
22/07:25am 26.2 30.2 24.4 90 1.2 ESE 11 19 6 10 1010.2 1010.0 0.0
22/07:00am 25.7 30.0 24.3 92 1.0 SE 9 17 5 9 1009.9 1009.7 0.0
22/06:30am 25.3 29.5 24.1 93 0.8 SE 9 17 5 9 1009.7 1009.5 0.0
22/06:09am 25.4 29.3 24.2 93 0.8 SE 11 19 6 10 1009.4 1009.2 0.0
22/06:00am 25.4 28.9 24.2 93 0.8 SSE 13 20 7 11 1009.3 1009.1 0.0
22/05:51am 25.5 29.3 24.1 92 1.0 SE 11 20 6 11 1009.2 1009.0 0.0
22/05:30am 25.5 29.1 24.3 93 0.8 SE 13 22 7 12 1009.1 1008.9 0.0
22/05:06am 25.6 28.8 24.4 93 0.8 SE 15 20 8 11 1008.9 1008.7 0.0
22/05:00am 25.6 28.8 24.4 93 0.8 SE 15 20 8 11 1008.8 1008.6 0.0
22/04:30am 26.5 29.5 24.7 90 1.3 SSE 17 24 9 13 1008.6 1008.4 0.0
22/04:00am 26.4 30.3 24.8 91 1.1 SSW 13 19 7 10 1008.4 1008.2 0.0
22/03:30am 26.8 31.0 25.4 92 1.0 SSW 13 15 7 8 1008.1 1007.9 0.0
22/03:00am 26.8 33.1 25.9 95 0.6 SW 4 7 2 4 1008.2 1008.0 0.0
22/02:30am 26.7 33.3 25.3 92 1.0 CALM 0 0 0 0 1008.3 1008.1 0.0
22/02:00am 27.1 33.0 25.9 93 0.8 S 6 7 3 4 1008.6 1008.4 0.0
22/01:30am 27.2 33.2 26.0 93 0.8 S 6 7 3 4 1008.9 1008.7 0.0
22/01:00am 27.1 33.0 26.2 95 0.6 SW 7 11 4 6 1009.1 1008.9 0.0
22/12:30am 26.8 33.8 25.8 94 0.7 CALM 0 0 0 0 1009.2 1009.0 0.0
22/12:00am 26.8 33.6 25.6 93 0.8 CALM 0 0 0 0 1009.5 1009.3 0.0
 
Date/Time
EST
Temp
°C
App
Temp
°C
Dew
Point
°C
Rel
Hum
%
Delta-T
°C
Wind Press
QNH
hPa
Press
MSL
hPa
Rain since
9am
mm
Dir  Spd
km/h
Gust
km/h
Spd
kts
Gust
kts
21/11:30pm 27.3 34.1 25.5 90 1.3 CALM 0 0 0 0 1009.9 1009.7 0.0
21/11:00pm 27.7 34.3 25.3 87 1.7 CALM 0 6 0 3 1010.1 1009.9 0.0
21/10:30pm 27.6 33.2 25.4 88 1.5 W 6 7 3 4 1010.1 1009.9 0.0
21/10:00pm 27.6 32.9 25.8 90 1.3 WSW 9 13 5 7 1009.9 1009.7 0.0
21/09:30pm 27.6 32.7 25.6 89 1.4 SW 9 11 5 6 1009.7 1009.5 0.0
21/09:00pm 27.9 33.2 25.9 89 1.4 W 9 11 5 6 1009.4 1009.2 0.0
21/08:30pm 28.6 33.9 25.8 85 2.0 NNW 9 11 5 6 1009.0 1008.8 0.0
21/08:00pm 28.6 33.9 25.0 81 2.5 WNW 6 7 3 4 1008.5 1008.3 0.0
21/07:30pm 29.0 33.9 24.6 77 3.1 N 7 9 4 5 1008.4 1008.2 0.0
21/07:00pm 29.2 34.0 24.5 76 3.3 NNW 7 11 4 6 1007.9 1007.7 0.0
21/06:30pm 29.4 33.8 24.5 75 3.4 N 9 11 5 6 1007.5 1007.3 0.0
21/06:00pm 29.5 33.6 24.6 75 3.4 N 11 15 6 8 1007.4 1007.2 0.0
21/05:30pm 29.6 33.4 24.7 75 3.4 NNW 13 17 7 9 1007.1 1006.9 0.0
21/05:00pm 29.9 33.9 25.0 75 3.4 NNW 13 17 7 9 1006.7 1006.5 0.0
21/04:30pm 29.6 32.9 25.1 77 3.2 N 17 20 9 11 1006.7 1006.5 0.0
21/04:00pm 29.3 32.4 24.8 77 3.2 N 17 24 9 13 1006.7 1006.5 0.0
21/03:30pm 30.9 36.3 25.5 73 3.8 N 7 13 4 7 1007.0 1006.8 0.0
21/03:00pm 30.9 35.6 25.0 71 4.2 NNW 9 17 5 9 1007.3 1007.1 0.0
21/02:30pm 30.6 35.9 25.2 73 3.8 NNW 7 13 4 7 1007.5 1007.3 0.0
21/02:00pm 30.7 34.8 23.9 67 4.7 NE 9 17 5 9 1008.3 1008.1 0.0
21/01:30pm 30.1 35.5 25.4 76 3.3 NNE 7 13 4 7 1008.8 1008.6 0.0
21/01:00pm 29.6 34.7 24.9 76 3.3 NNE 7 15 4 8 1009.5 1009.3 0.0
21/12:30pm 29.3 34.3 24.8 77 3.2 NE 7 11 4 6 1009.6 1009.4 0.0
21/12:00pm 29.1 34.5 25.5 81 2.5 NNE 7 11 4 6 1010.2 1010.0 0.0
21/11:30am 28.7 34.6 25.3 82 2.4 N 4 9 2 5 1010.8 1010.6 0.0
21/11:17am 28.3 34.3 24.9 82 2.4 NNE 2 7 1 4 1010.9 1010.7 0.0
21/11:00am 28.4 35.4 25.8 86 1.8 CALM 0 0 0 0 1011.0 1010.8 0.0
21/10:49am 28.2 34.8 25.2 84 2.1 CALM 0 0 0 0 1011.2 1011.0 0.0
21/10:30am 28.0 33.7 25.0 84 2.1 SSW 4 7 2 4 1011.4 1011.2 0.0
21/10:18am 27.7 33.6 24.7 84 2.1 W 2 6 1 3 1011.4 1011.2 0.0
21/10:00am 27.7 33.0 24.9 85 2.0 W 6 7 3 4 1011.6 1011.4 0.0
21/09:30am 27.8 34.1 24.8 84 2.1 CALM 0 0 0 0 1011.4 1011.2 0.0
21/09:25am 27.8 34.1 24.8 84 2.1 CALM 0 6 0 3 1011.3 1011.1 0.0
21/09:00am 27.6 33.4 24.6 84 2.1 SSW 2 7 1 4 1011.2 1011.0 0.0
21/08:30am 27.2 32.4 24.8 87 1.7 ESE 6 7 3 4 1011.1 1010.9 0.0
21/08:00am 26.7 31.5 24.4 87 1.6 ENE 7 11 4 6 1010.6 1010.4 0.0
21/07:58am 26.7 31.5 24.5 88 1.5 ENE 7 11 4 6 1010.6 1010.4 0.0
21/07:30am 26.4 31.0 24.1 87 1.6 ENE 7 9 4 5 1010.3 1010.1 0.0
21/07:20am 26.3 30.8 24.0 87 1.6 ENE 7 11 4 6 1010.2 1010.0 0.0
21/07:00am 26.1 30.4 23.6 86 1.7 ESE 7 13 4 7 1010.0 1009.8 0.0
21/06:30am 26.1 30.8 24.3 90 1.2 ESE 7 11 4 6 1009.8 1009.6 0.0
21/06:00am 26.4 31.0 24.8 91 1.1 SE 9 13 5 7 1009.5 1009.3 0.0
21/05:30am 27.0 32.6 25.4 91 1.1 E 6 11 3 6 1009.1 1008.9 0.0
21/05:00am 27.0 33.7 25.4 91 1.1 CALM 0 0 0 0 1009.2 1009.0 0.0
21/04:30am 27.0 32.1 25.6 92 1.0 ENE 9 13 5 7 1009.0 1008.8 0.0
21/04:00am 27.1 32.0 25.9 93 0.8 ENE 11 15 6 8 1008.8 1008.6 0.0
21/03:30am 27.4 33.5 25.6 90 1.3 NNE 4 9 2 5 1008.7 1008.5 0.0
21/03:00am 27.1 34.2 26.0 94 0.8 CALM 0 0 0 0 1008.5 1008.3 0.0
21/02:30am 27.2 34.5 26.3 95 0.6 CALM 0 0 0 0 1008.6 1008.4 0.0
21/02:00am 27.2 34.2 25.8 92 1.0 CALM 0 0 0 0 1008.7 1008.5 0.0
21/01:30am 27.5 34.4 25.7 90 1.3 CALM 0 0 0 0 1008.9 1008.7 0.0
21/01:00am 27.4 34.4 25.8 91 1.1 CALM 0 0 0 0 1009.2 1009.0 0.0
21/12:30am 27.6 33.7 25.6 89 1.4 NW 4 6 2 3 1009.4 1009.2 0.0
21/12:00am 27.6 33.0 25.2 87 1.7 N 6 9 3 5 1009.4 1009.2 0.0
 
Date/Time
EST
Temp
°C
App
Temp
°C
Dew
Point
°C
Rel
Hum
%
Delta-T
°C
Wind Press
QNH
hPa
Press
MSL
hPa
Rain since
9am
mm
Dir  Spd
km/h
Gust
km/h
Spd
kts
Gust
kts
20/11:30pm 27.5 33.3 25.7 90 1.3 NNW 6 7 3 4 1009.8 1009.6 0.0
20/11:00pm 27.2 33.7 25.6 91 1.1 N 2 6 1 3 1009.9 1009.7 0.0
20/10:30pm 26.9 33.9 25.9 94 0.7 CALM 0 0 0 0 1009.8 1009.6 0.0
20/10:00pm 27.3 34.2 25.7 91 1.1 CALM 0 0 0 0 1009.7 1009.5 0.0
20/09:30pm 27.3 33.7 25.5 90 1.3 N 2 6 1 3 1009.2 1009.0 0.0
20/09:00pm 27.6 33.3 25.6 89 1.4 NNW 6 7 3 4 1008.9 1008.7 0.0
20/08:30pm 27.6 33.1 25.6 89 1.4 NNW 7 9 4 5 1008.5 1008.3 0.0
20/08:00pm 27.6 32.2 25.4 88 1.5 N 11 15 6 8 1008.2 1008.0 0.0
20/07:30pm 27.8 32.2 25.0 85 2.0 NNW 11 13 6 7 1008.0 1007.8 0.0
20/07:00pm 28.2 32.9 25.0 83 2.2 NNW 9 13 5 7 1008.0 1007.8 0.0
20/06:30pm 28.4 32.9 24.6 80 2.6 NNW 9 13 5 7 1007.8 1007.6 0.0
20/06:00pm 29.1 34.0 25.3 80 2.7 N 9 13 5 7 1007.7 1007.5 0.0
20/05:30pm 28.5 33.4 25.3 83 2.3 N 9 11 5 6 1007.8 1007.6 0.0
20/05:00pm 28.3 32.2 24.9 82 2.4 N 13 19 7 10 1008.0 1007.8 0.0
20/04:30pm 28.0 30.6 24.6 82 2.4 N 19 28 10 15 1008.1 1007.9 0.0
20/04:00pm 31.5 36.0 23.6 63 5.5 E 6 11 3 6 1008.2 1008.0 0.0
20/03:30pm 31.3 36.2 24.7 68 4.6 E 7 13 4 7 1008.2 1008.0 0.0
20/03:00pm 31.4 35.3 24.3 66 5.0 SSE 11 17 6 9 1008.1 1007.9 0.0
20/02:30pm 31.6 36.7 25.5 70 4.3 SSE 9 22 5 12 1008.2 1008.0 0.0
20/02:00pm 30.6 36.0 24.5 70 4.3 SE 4 11 2 6 1009.1 1008.9 0.0
20/01:30pm 30.7 35.3 24.8 71 4.1 E 9 15 5 8 1009.4 1009.2 0.0
20/01:00pm 30.5 35.3 25.1 73 3.8 E 9 13 5 7 1009.7 1009.5 0.0
20/12:30pm 30.2 34.8 24.8 73 3.8 NE 9 15 5 8 1010.2 1010.0 0.0
20/12:00pm 29.7 34.7 24.8 75 3.4 E 7 13 4 7 1010.7 1010.5 0.0
20/11:30am 29.6 34.3 25.6 79 2.8 E 11 17 6 9 1010.8 1010.6 0.0
20/11:00am 29.2 34.5 25.8 82 2.4 ENE 9 17 5 9 1011.0 1010.8 0.0
20/10:30am 28.5 33.3 25.1 82 2.4 E 9 15 5 8 1011.5 1011.3 0.0
20/10:00am 28.0 32.9 25.2 85 2.0 E 9 13 5 7 1011.6 1011.4 0.0
20/09:38am 27.7 32.9 25.1 86 1.8 E 7 15 4 8 1011.7 1011.5 0.0
20/09:30am 27.8 32.9 25.6 88 1.6 ENE 9 13 5 7 1011.6 1011.4 0.0
20/09:00am 27.3 32.2 25.3 89 1.4 ENE 9 13 5 7 1011.3 1011.1 19.6
20/08:58am 27.3 32.6 25.3 89 1.4 E 7 13 4 7 1011.3 1011.1 19.6
20/08:30am 27.1 31.9 25.1 89 1.4 E 9 13 5 7 1010.9 1010.7 19.6
20/08:00am 26.8 32.5 25.6 93 0.8 E 6 9 3 5 1010.5 1010.3 19.6

Other formats

Comma delimited format used in spreadsheet applications
http://www.bom.gov.au/fwo/IDQ60801/IDQ60801.94266.axf

JavaScript Object Notation format (JSON) in row-major order
http://www.bom.gov.au/fwo/IDQ60801/IDQ60801.94266.json

Data quality

Most of these data are generated automatically and are frequently updated. Quality checks on data are not normally performed. It is possible for incorrect values to appear. Refer to information at About Latest Weather Observations and please check the disclaimer before using these data.